Time;durP1;ratioP1;P1;durP2;ratioP2;P2;SDS_P1;SDS_P2;PMS_P1;PMS_P2;Temp;Humidity;BMP_temperature;BMP_pressure;BME280_temperature;BME280_humidity;BME280_pressure;Samples;Min_cycle;Max_cycle;Signal;HPM_P1;HPM_P2
2022/08/22 00:00:29;;;;;;;14.77;5.00;;;18.80;99.90;;;;;;5074819;28;20045;-68
2022/08/22 00:03:19;;;;;;;17.35;4.32;;;18.80;99.90;;;;;;5032351;28;20026;-69
2022/08/22 00:06:00;;;;;;;13.38;3.72;;;18.80;99.90;;;;;;5070860;28;20028;-68
2022/08/22 00:08:43;;;;;;;10.60;3.80;;;18.80;99.90;;;;;;5074796;28;20362;-68
2022/08/22 00:11:43;;;;;;;17.60;3.95;;;18.70;99.90;;;;;;5074228;28;20327;-70
2022/08/22 00:14:36;;;;;;;11.55;3.97;;;18.70;99.90;;;;;;5073113;28;20028;-71
2022/08/22 00:17:08;;;;;;;;;;;18.70;99.90;;;;;;5074893;28;20087;-68
2022/08/22 00:19:50;;;;;;;17.35;4.75;;;18.60;99.90;;;;;;5074476;28;19900;-70
2022/08/22 00:22:47;;;;;;;11.30;4.20;;;18.60;99.90;;;;;;5074511;28;20025;-66
2022/08/22 00:25:25;;;;;;;11.18;4.45;;;18.60;99.90;;;;;;5074024;28;20819;-67
2022/08/22 00:27:57;;;;;;;11.60;4.20;;;18.60;99.90;;;;;;5073895;28;20348;-67
2022/08/22 00:30:24;;;;;;;12.82;3.92;;;18.60;99.90;;;;;;5074287;28;20020;-68
2022/08/22 00:32:55;;;;;;;14.30;4.00;;;18.60;99.90;;;;;;5073051;28;20046;-69
2022/08/22 00:35:37;;;;;;;10.13;3.90;;;18.60;99.90;;;;;;5073457;28;20066;-70
2022/08/22 00:38:37;;;;;;;15.70;4.10;;;18.60;99.90;;;;;;5074144;28;20081;-68
2022/08/22 00:41:13;;;;;;;11.95;3.65;;;18.60;99.90;;;;;;5073436;28;20039;-68
2022/08/22 00:44:11;;;;;;;12.82;4.15;;;18.60;99.90;;;;;;5073798;28;20109;-68
2022/08/22 00:47:01;;;;;;;12.77;3.60;;;18.60;99.90;;;;;;5074041;28;20082;-68
2022/08/22 00:49:44;;;;;;;11.75;3.63;;;18.60;99.90;;;;;;5074190;28;20028;-68
2022/08/22 00:52:21;;;;;;;11.30;3.53;;;18.60;99.90;;;;;;5073990;28;20029;-68
2022/08/22 00:54:59;;;;;;;9.48;2.95;;;18.60;99.90;;;;;;5073668;28;20415;-68
2022/08/22 00:57:30;;;;;;;13.13;3.40;;;18.60;99.90;;;;;;5073812;28;20017;-68
2022/08/22 01:00:16;;;;;;;9.45;3.05;;;18.60;99.90;;;;;;5073689;28;20049;-67
2022/08/22 01:03:26;;;;;;;12.20;2.90;;;18.50;99.90;;;;;;5073503;28;20020;-67
2022/08/22 01:06:22;;;;;;;11.25;3.45;;;18.50;99.90;;;;;;5062271;28;20075;-68
2022/08/22 01:09:13;;;;;;;8.57;2.60;;;18.50;99.90;;;;;;5073168;28;20028;-69
2022/08/22 01:11:47;;;;;;;12.20;2.97;;;18.40;99.90;;;;;;5073380;28;20442;-69
2022/08/22 01:14:46;;;;;;;12.90;3.22;;;18.40;99.90;;;;;;5073064;28;20077;-68
2022/08/22 01:17:33;;;;;;;7.28;2.67;;;18.30;99.90;;;;;;5072935;28;20103;-68
2022/08/22 01:20:26;;;;;;;10.30;2.85;;;18.30;99.90;;;;;;5073204;28;20017;-68
2022/08/22 01:23:17;;;;;;;11.65;3.30;;;18.30;99.90;;;;;;5073466;28;20081;-68
2022/08/22 01:26:21;;;;;;;12.38;2.83;;;18.30;99.90;;;;;;5073282;28;20100;-68
2022/08/22 01:29:28;;;;;;;13.18;3.00;;;18.30;99.90;;;;;;5072821;28;20382;-68
2022/08/22 01:32:12;;;;;;;10.07;3.10;;;18.30;99.90;;;;;;5073117;28;20032;-68
2022/08/22 01:34:46;;;;;;;13.43;3.25;;;18.30;99.90;;;;;;5073528;28;20085;-69
2022/08/22 01:37:19;;;;;;;12.15;3.17;;;18.30;99.90;;;;;;5071702;28;20359;-69
2022/08/22 01:40:02;;;;;;;13.20;3.20;;;18.20;99.90;;;;;;5073080;28;20067;-68
2022/08/22 01:42:59;;;;;;;12.05;3.10;;;18.20;99.90;;;;;;5072787;28;20484;-68
2022/08/22 01:45:52;;;;;;;12.13;2.78;;;18.20;99.90;;;;;;5072794;28;20111;-68
2022/08/22 01:48:30;;;;;;;12.02;3.35;;;18.20;99.90;;;;;;5072510;28;20512;-70
2022/08/22 01:51:14;;;;;;;9.27;3.03;;;18.20;99.90;;;;;;5073314;28;20024;-71
2022/08/22 01:53:43;;;;;;;15.07;3.25;;;18.20;99.90;;;;;;5073239;28;20096;-68
2022/08/22 01:56:20;;;;;;;11.10;3.20;;;18.10;99.90;;;;;;5072902;28;20056;-69
2022/08/22 01:59:05;;;;;;;11.25;3.03;;;18.00;99.90;;;;;;5056422;28;20146;-70
2022/08/22 02:01:51;;;;;;;10.20;3.05;;;18.00;99.90;;;;;;5052559;28;20028;-68
2022/08/22 02:04:50;;;;;;;13.52;3.40;;;18.00;99.90;;;;;;5052218;28;20037;-68
2022/08/22 02:07:43;;;;;;;14.65;3.55;;;18.00;99.90;;;;;;5052169;28;20412;-69
2022/08/22 02:10:39;;;;;;;15.77;4.05;;;17.90;99.90;;;;;;5052961;28;20466;-69
2022/08/22 02:13:22;;;;;;;15.85;4.55;;;17.90;99.90;;;;;;5059597;28;20111;-68
2022/08/22 02:16:00;;;;;;;11.68;3.33;;;17.80;99.90;;;;;;5059422;28;20033;-69
2022/08/22 02:18:31;;;;;;;14.32;3.58;;;17.80;99.90;;;;;;5059496;28;20474;-68
2022/08/22 02:21:07;;;;;;;9.90;3.78;;;17.70;99.90;;;;;;5059092;28;20017;-69
2022/08/22 02:23:59;;;;;;;16.15;3.90;;;17.70;99.90;;;;;;5059226;28;20042;-68
2022/08/22 02:26:48;;;;;;;17.77;4.20;;;17.70;99.90;;;;;;5059454;28;20043;-69
2022/08/22 02:30:06;;;;;;;17.70;4.28;;;17.70;99.90;;;;;;5059121;28;20469;-67
2022/08/22 02:32:50;;;;;;;16.13;4.20;;;17.60;99.90;;;;;;5056312;28;20029;-68
2022/08/22 02:35:20;;;;;;;15.05;3.58;;;17.60;99.90;;;;;;5058487;28;20045;-68
2022/08/22 02:37:54;;;;;;;12.93;4.28;;;17.60;99.90;;;;;;5058793;28;20378;-68
2022/08/22 02:40:33;;;;;;;13.63;3.88;;;17.60;99.90;;;;;;5058679;28;20108;-68
2022/08/22 02:43:08;;;;;;;13.15;4.20;;;17.60;99.90;;;;;;5058833;28;20025;-68
2022/08/22 02:45:58;;;;;;;11.75;3.70;;;17.50;99.90;;;;;;5059100;28;20027;-70
2022/08/22 02:48:40;;;;;;;12.77;4.07;;;17.50;99.90;;;;;;5059035;28;20021;-72
2022/08/22 02:51:29;;;;;;;12.73;4.10;;;17.60;99.90;;;;;;5057001;28;20029;-66
2022/08/22 02:54:13;;;;;;;14.18;3.95;;;17.50;99.90;;;;;;5058470;28;20024;-67
2022/08/22 02:56:42;;;;;;;9.65;3.50;;;17.50;99.90;;;;;;5057475;28;20028;-68
2022/08/22 02:59:14;;;;;;;16.83;4.13;;;17.50;99.90;;;;;;5077442;28;20458;-68
2022/08/22 03:01:43;;;;;;;11.48;4.38;;;17.50;99.90;;;;;;5078775;28;20028;-68
2022/08/22 03:04:31;;;;;;;15.73;4.20;;;17.40;99.90;;;;;;5078033;28;20146;-68
2022/08/22 03:06:57;;;;;;;16.40;4.55;;;17.40;99.90;;;;;;5078751;28;20028;-68
2022/08/22 03:09:39;;;;;;;17.27;4.45;;;17.40;99.90;;;;;;5078333;28;20073;-71
2022/08/22 03:12:18;;;;;;;14.10;4.57;;;17.40;99.90;;;;;;5078731;28;20040;-68
2022/08/22 03:15:00;;;;;;;10.85;4.18;;;17.40;99.90;;;;;;5078594;28;20040;-68
2022/08/22 03:17:32;;;;;;;10.68;4.18;;;17.40;99.90;;;;;;5078941;28;20466;-68
2022/08/22 03:20:19;;;;;;;12.57;4.47;;;17.40;99.90;;;;;;5078943;28;20111;-69
2022/08/22 03:22:55;;;;;;;11.40;4.30;;;17.40;99.90;;;;;;5074480;28;20074;-69
2022/08/22 03:25:56;;;;;;;12.75;4.50;;;17.30;99.90;;;;;;5075327;28;20028;-68
2022/08/22 03:28:32;;;;;;;14.18;5.18;;;17.30;99.90;;;;;;5069222;28;20039;-69
2022/08/22 03:31:17;;;;;;;12.80;4.80;;;17.20;99.90;;;;;;5075388;28;20077;-68
2022/08/22 03:33:44;;;;;;;17.85;5.70;;;17.20;99.90;;;;;;5075367;28;20328;-68
2022/08/22 03:36:15;;;;;;;15.30;5.03;;;17.10;99.90;;;;;;5074744;28;20158;-69
2022/08/22 03:39:00;;;;;;;16.53;5.53;;;17.10;99.90;;;;;;5074742;28;20021;-67
2022/08/22 03:41:34;;;;;;;20.38;6.05;;;17.10;99.90;;;;;;5075063;28;20024;-68
2022/08/22 03:44:14;;;;;;;17.38;5.35;;;17.10;99.90;;;;;;5074942;28;20021;-69
2022/08/22 03:47:00;;;;;;;18.02;5.65;;;17.10;99.90;;;;;;5074848;28;20032;-67
2022/08/22 03:49:42;;;;;;;15.15;5.43;;;17.10;99.90;;;;;;5074939;28;20027;-68
2022/08/22 03:52:26;;;;;;;15.55;5.13;;;17.10;99.90;;;;;;5075030;28;20097;-71
2022/08/22 03:55:25;;;;;;;15.00;5.00;;;17.10;99.90;;;;;;5074807;28;20415;-68
2022/08/22 03:58:18;;;;;;;17.48;5.30;;;17.10;99.90;;;;;;5074427;28;20111;-68
2022/08/22 04:01:18;;;;;;;14.05;5.07;;;17.10;99.90;;;;;;5074903;28;20033;-68
2022/08/22 04:04:24;;;;;;;16.23;5.53;;;17.10;99.90;;;;;;5074787;28;20032;-70
2022/08/22 04:07:11;;;;;;;14.07;4.85;;;17.10;99.90;;;;;;5040747;28;20036;-68
2022/08/22 04:09:57;;;;;;;14.20;5.05;;;17.10;99.90;;;;;;5073374;28;20020;-68
2022/08/22 04:12:54;;;;;;;12.02;5.00;;;17.10;99.90;;;;;;5074389;28;20025;-68
2022/08/22 04:16:05;;;;;;;14.02;5.13;;;17.10;99.90;;;;;;5074468;28;20036;-68
2022/08/22 04:19:03;;;;;;;12.52;5.38;;;17.10;99.90;;;;;;5074589;28;20024;-69
2022/08/22 04:21:46;;;;;;;16.40;5.13;;;17.00;99.90;;;;;;5074211;28;20028;-68
2022/08/22 04:24:41;;;;;;;11.00;4.60;;;17.00;99.90;;;;;;5074607;28;20021;-71
2022/08/22 04:27:44;;;;;;;14.35;5.43;;;16.90;99.90;;;;;;5073141;28;20032;-69
2022/08/22 04:30:32;;;;;;;12.02;5.07;;;16.90;99.90;;;;;;5074137;28;20027;-68
2022/08/22 04:33:07;;;;;;;16.98;5.53;;;16.80;99.90;;;;;;5074142;28;20021;-69
2022/08/22 04:35:34;;;;;;;15.88;5.43;;;16.90;99.90;;;;;;5074105;28;20086;-71
2022/08/22 04:38:09;;;;;;;15.55;4.82;;;16.90;99.90;;;;;;5074304;28;20044;-68
2022/08/22 04:41:03;;;;;;;17.52;5.60;;;16.90;99.90;;;;;;5072723;28;20111;-68
2022/08/22 04:43:37;;;;;;;15.68;5.82;;;16.90;99.90;;;;;;5067839;28;20088;-70
2022/08/22 04:46:38;;;;;;;16.60;5.32;;;16.90;99.90;;;;;;5073975;28;20481;-71
2022/08/22 04:49:15;;;;;;;15.27;5.20;;;17.00;99.90;;;;;;5057515;28;20083;-70
2022/08/22 04:51:46;;;;;;;18.02;6.32;;;17.00;99.90;;;;;;5073465;28;20456;-68
2022/08/22 04:54:52;;;;;;;12.20;5.63;;;17.00;99.90;;;;;;5073381;28;20024;-71
2022/08/22 04:57:50;;;;;;;17.80;6.25;;;17.10;99.90;;;;;;5073286;28;20070;-68
2022/08/22 05:00:16;;;;;;;18.25;6.72;;;17.10;99.90;;;;;;5056727;28;20445;-69
2022/08/22 05:02:48;;;;;;;16.52;6.50;;;17.20;99.90;;;;;;5073292;28;20024;-67
2022/08/22 05:05:20;;;;;;;17.02;6.70;;;17.20;99.90;;;;;;5073857;28;20025;-68
2022/08/22 05:07:56;;;;;;;18.92;6.85;;;17.20;99.90;;;;;;5071498;28;20028;-69
2022/08/22 05:10:26;;;;;;;14.20;6.28;;;17.30;99.90;;;;;;5071802;28;20023;-67
2022/08/22 05:13:10;;;;;;;15.73;6.25;;;17.30;99.90;;;;;;5071193;28;20132;-68
2022/08/22 05:15:40;;;;;;;18.27;6.82;;;17.30;99.90;;;;;;5072051;28;20047;-67
2022/08/22 05:18:16;;;;;;;16.60;6.47;;;17.30;99.90;;;;;;5072053;28;20063;-68
2022/08/22 05:20:47;;;;;;;19.15;6.13;;;17.40;99.90;;;;;;5071731;28;20012;-72
2022/08/22 05:23:20;;;;;;;15.43;5.97;;;17.40;99.90;;;;;;5072462;28;20094;-70
2022/08/22 05:25:49;;;;;;;14.30;6.38;;;17.50;99.90;;;;;;5072007;28;20520;-69
2022/08/22 05:28:32;;;;;;;15.10;6.82;;;17.50;99.90;;;;;;5073214;28;20024;-67
2022/08/22 05:31:03;;;;;;;15.85;6.53;;;17.50;99.90;;;;;;5073585;28;20464;-67
2022/08/22 05:33:37;;;;;;;13.23;6.25;;;17.60;99.90;;;;;;5073187;28;20024;-68
2022/08/22 05:36:10;;;;;;;15.57;6.60;;;17.60;99.90;;;;;;5072988;28;20036;-67
2022/08/22 05:38:45;;;;;;;15.80;5.82;;;17.70;99.90;;;;;;5073373;28;20032;-67
2022/08/22 05:41:17;;;;;;;16.90;6.25;;;17.70;99.90;;;;;;5073517;28;20032;-71
2022/08/22 05:43:43;;;;;;;;;;;17.70;99.90;;;;;;5073510;28;20455;-67
2022/08/22 05:46:19;;;;;;;13.90;5.78;;;17.70;99.90;;;;;;5072359;28;20361;-67
2022/08/22 05:49:06;;;;;;;17.98;6.32;;;17.70;99.90;;;;;;5073092;28;20512;-69
2022/08/22 05:51:46;;;;;;;11.80;5.72;;;17.70;99.90;;;;;;5073323;28;20100;-67
2022/08/22 05:54:18;;;;;;;15.32;6.15;;;17.70;99.90;;;;;;5073220;28;20020;-66
2022/08/22 05:56:51;;;;;;;13.10;5.63;;;17.80;99.90;;;;;;5073216;28;20107;-70
2022/08/22 05:59:25;;;;;;;13.32;4.95;;;17.80;99.90;;;;;;5072570;28;20050;-70
2022/08/22 06:02:22;;;;;;;15.27;5.68;;;17.90;99.90;;;;;;5072733;28;20025;-67
2022/08/22 06:04:59;;;;;;;14.07;4.72;;;17.90;99.90;;;;;;5063641;28;20032;-68
2022/08/22 06:07:46;;;;;;;14.20;5.47;;;18.00;99.90;;;;;;5072756;28;20024;-67
2022/08/22 06:10:32;;;;;;;14.95;5.75;;;18.10;99.90;;;;;;5071497;28;20012;-69
2022/08/22 06:13:28;;;;;;;17.40;6.20;;;18.30;99.90;;;;;;5066908;28;20024;-68
2022/08/22 06:16:12;;;;;;;13.52;5.38;;;18.40;99.90;;;;;;5065265;28;20033;-71
2022/08/22 06:18:41;;;;;;;17.33;5.53;;;18.60;99.90;;;;;;5068946;28;20051;-68
2022/08/22 06:21:21;;;;;;;12.75;5.75;;;18.80;99.90;;;;;;5071553;28;20041;-68
2022/08/22 06:23:55;;;;;;;12.02;4.93;;;19.10;99.90;;;;;;5072856;28;20095;-67
2022/08/22 06:26:23;;;;;;;15.07;4.93;;;19.30;99.90;;;;;;5073012;28;20438;-68
2022/08/22 06:28:52;;;;;;;13.35;4.05;;;19.60;99.90;;;;;;5072372;28;20020;-68
2022/08/22 06:31:21;;;;;;;16.67;4.35;;;19.90;99.90;;;;;;5072829;28;20094;-66
2022/08/22 06:34:01;;;;;;;9.55;3.75;;;20.20;99.90;;;;;;5072705;28;20025;-70
2022/08/22 06:36:30;;;;;;;11.60;4.03;;;20.50;99.90;;;;;;5072592;28;20037;-67
2022/08/22 06:39:20;;;;;;;16.88;4.28;;;20.90;99.90;;;;;;5072487;28;20027;-67
2022/08/22 06:41:55;;;;;;;11.80;4.18;;;21.20;99.90;;;;;;5072560;28;20511;-71
2022/08/22 06:44:25;;;;;;;16.95;3.70;;;21.50;99.90;;;;;;5072775;28;20021;-68
2022/08/22 06:46:54;;;;;;;13.00;3.60;;;21.90;99.90;;;;;;5072456;28;20047;-67
2022/08/22 06:49:22;;;;;;;11.30;3.50;;;22.30;99.90;;;;;;5072496;28;20020;-67
2022/08/22 06:51:49;;;;;;;15.68;3.65;;;22.70;99.90;;;;;;5072737;28;20066;-71
2022/08/22 06:54:23;;;;;;;13.73;3.42;;;23.20;99.90;;;;;;5073042;28;20096;-70
2022/08/22 06:56:51;;;;;;;13.93;3.97;;;23.60;99.90;;;;;;5072711;28;20047;-67
2022/08/22 06:59:22;;;;;;;11.00;3.20;;;24.00;99.90;;;;;;5076131;28;20117;-67
2022/08/22 07:01:57;;;;;;;13.17;4.20;;;24.30;99.90;;;;;;5076350;28;20354;-70
2022/08/22 07:04:25;;;;;;;8.02;3.00;;;24.60;99.90;;;;;;5075212;28;20488;-70
2022/08/22 07:06:52;;;;;;;13.07;3.33;;;25.10;99.90;;;;;;5076512;28;20051;-70
2022/08/22 07:09:26;;;;;;;12.00;3.25;;;25.40;99.90;;;;;;5075643;28;20032;-68
2022/08/22 07:11:55;;;;;;;9.82;3.03;;;25.80;99.50;;;;;;5076332;28;20074;-66
2022/08/22 07:14:27;;;;;;;10.30;2.80;;;26.20;98.50;;;;;;5075973;28;20073;-67
2022/08/22 07:16:59;;;;;;;12.50;3.13;;;26.20;98.10;;;;;;5075721;28;20036;-68
2022/08/22 07:19:27;;;;;;;9.63;3.22;;;26.20;97.90;;;;;;5075451;28;20031;-67
2022/08/22 07:21:53;;;;;;;13.65;3.10;;;26.00;98.10;;;;;;5066498;28;20017;-68
2022/08/22 07:24:27;;;;;;;12.02;3.42;;;25.80;98.20;;;;;;5065985;28;20105;-67
2022/08/22 07:26:52;;;;;;;11.73;3.70;;;25.40;98.50;;;;;;5075862;28;20016;-68
2022/08/22 07:29:32;;;;;;;10.48;3.60;;;25.10;99.10;;;;;;5075957;28;20077;-67
2022/08/22 07:32:30;;;;;;;13.68;3.15;;;24.80;99.40;;;;;;5075728;28;20031;-68
2022/08/22 07:35:25;;;;;;;13.52;2.80;;;24.60;99.90;;;;;;5061491;28;20039;-68
2022/08/22 07:38:15;;;;;;;9.23;3.35;;;24.50;99.90;;;;;;5066537;28;20473;-66
2022/08/22 07:40:58;;;;;;;13.10;3.35;;;24.50;99.90;;;;;;5075824;28;20039;-71
2022/08/22 07:43:53;;;;;;;11.65;2.88;;;24.50;99.90;;;;;;5075895;28;20029;-67
2022/08/22 07:46:40;;;;;;;10.15;3.40;;;24.60;99.90;;;;;;5075022;28;20459;-68
2022/08/22 07:49:25;;;;;;;11.27;3.00;;;24.90;99.90;;;;;;5074945;28;20039;-70
2022/08/22 07:51:54;;;;;;;10.40;3.10;;;25.00;99.60;;;;;;5073858;28;20514;-67
2022/08/22 07:54:24;;;;;;;10.23;3.20;;;25.40;99.20;;;;;;5075134;28;20062;-68
2022/08/22 07:57:00;;;;;;;11.07;3.65;;;25.80;98.50;;;;;;5074517;28;20032;-70
2022/08/22 07:59:27;;;;;;;8.85;3.20;;;26.30;97.90;;;;;;5075156;28;20120;-65
2022/08/22 08:01:55;;;;;;;10.65;2.92;;;26.70;97.20;;;;;;5075303;28;20023;-66
2022/08/22 08:04:29;;;;;;;10.77;3.22;;;27.10;96.80;;;;;;5075126;28;20023;-67
2022/08/22 08:06:58;;;;;;;14.13;4.00;;;27.60;95.80;;;;;;5075041;28;20025;-65
2022/08/22 08:09:29;;;;;;;9.73;2.92;;;28.50;95.00;;;;;;5074502;28;20093;-66
2022/08/22 08:11:56;;;;;;;10.98;3.10;;;29.50;93.70;;;;;;5075103;28;20121;-66
2022/08/22 08:14:24;;;;;;;8.60;2.92;;;30.40;92.30;;;;;;5075011;28;20095;-69
2022/08/22 08:17:01;;;;;;;12.15;3.47;;;31.20;91.10;;;;;;5074785;28;20044;-68
2022/08/22 08:19:29;;;;;;;12.85;3.00;;;32.10;89.70;;;;;;5075030;28;20028;-67
2022/08/22 08:21:56;;;;;;;12.40;3.50;;;32.70;87.70;;;;;;5074683;28;20130;-69
2022/08/22 08:24:40;;;;;;;11.00;3.05;;;33.50;86.00;;;;;;5073958;28;20025;-68
2022/08/22 08:30:00;;;;;;;8.35;3.00;;;34.90;81.00;;;;;;5074565;28;20028;-69
2022/08/22 08:32:30;;;;;;;10.07;2.83;;;35.70;79.10;;;;;;5074375;28;20031;-67
2022/08/22 08:34:58;;;;;;;9.50;2.90;;;36.30;77.00;;;;;;5074260;28;20454;-68
2022/08/22 08:37:40;;;;;;;12.48;2.60;;;36.90;75.00;;;;;;5075075;28;20020;-67
2022/08/22 08:40:38;;;;;;;11.45;2.85;;;37.50;72.50;;;;;;5074927;28;20020;-66
2022/08/22 08:43:26;;;;;;;11.15;2.88;;;38.00;71.70;;;;;;5073601;28;20370;-67
2022/08/22 08:46:10;;;;;;;10.73;3.60;;;38.40;69.20;;;;;;5074486;28;20067;-70
2022/08/22 08:49:06;;;;;;;10.07;2.97;;;38.50;68.70;;;;;;5074109;28;20374;-68
2022/08/22 08:51:47;;;;;;;11.20;2.58;;;38.50;67.20;;;;;;5074076;28;20032;-67
2022/08/22 08:54:50;;;;;;;8.07;2.40;;;38.20;66.30;;;;;;5074328;28;20120;-69
2022/08/22 08:57:41;;;;;;;8.40;2.45;;;38.20;66.00;;;;;;5074766;28;20039;-67
2022/08/22 09:00:32;;;;;;;6.93;2.20;;;38.20;65.10;;;;;;5073764;28;20123;-71
2022/08/22 09:03:12;;;;;;;9.88;2.63;;;38.20;64.60;;;;;;5074003;28;20028;-70
2022/08/22 09:05:37;;;;;;;8.73;2.33;;;38.10;64.70;;;;;;5074035;28;20029;-67
2022/08/22 09:08:41;;;;;;;10.52;2.50;;;38.10;64.40;;;;;;5073996;28;20028;-68
2022/08/22 09:11:29;;;;;;;7.15;2.70;;;38.30;63.90;;;;;;5073914;28;20025;-68
2022/08/22 09:14:25;;;;;;;9.23;2.60;;;38.40;63.40;;;;;;5073812;28;20016;-67
2022/08/22 09:17:16;;;;;;;8.00;2.53;;;38.60;63.30;;;;;;5073444;28;20394;-67
2022/08/22 09:19:49;;;;;;;8.23;2.50;;;38.70;62.20;;;;;;5074014;28;20048;-70
2022/08/22 09:22:59;;;;;;;11.43;2.65;;;38.60;62.70;;;;;;5073232;28;20454;-71
2022/08/22 09:25:32;;;;;;;8.45;2.70;;;38.60;62.50;;;;;;5073612;28;20020;-69
2022/08/22 09:28:17;;;;;;;9.07;2.50;;;38.70;62.30;;;;;;5073717;28;20473;-68
2022/08/22 09:31:04;;;;;;;6.82;2.05;;;38.90;62.30;;;;;;5073852;28;20107;-68
2022/08/22 09:34:11;;;;;;;9.95;2.80;;;39.20;61.20;;;;;;5073645;28;20035;-67
2022/08/22 09:37:10;;;;;;;9.82;2.40;;;38.60;61.30;;;;;;5073070;28;20040;-67
2022/08/22 09:39:58;;;;;;;12.30;2.63;;;37.60;63.00;;;;;;5073410;28;20066;-67
2022/08/22 09:42:44;;;;;;;9.75;2.83;;;36.90;63.60;;;;;;5072983;28;20052;-68
2022/08/22 09:45:35;;;;;;;10.60;2.63;;;36.70;64.50;;;;;;5073377;28;20021;-67
2022/08/22 09:48:24;;;;;;;8.77;2.85;;;37.40;64.10;;;;;;5061829;28;20044;-70
2022/08/22 09:51:06;;;;;;;7.95;2.25;;;38.10;62.30;;;;;;5066447;28;20102;-67
2022/08/22 09:53:43;;;;;;;9.02;2.60;;;38.10;62.20;;;;;;5073127;28;20024;-70
2022/08/22 09:56:19;;;;;;;9.13;2.28;;;38.30;60.80;;;;;;5073044;28;20040;-67
2022/08/22 09:59:12;;;;;;;13.75;2.58;;;38.70;59.20;;;;;;5072872;28;20040;-70
2022/08/22 10:02:09;;;;;;;9.45;2.75;;;39.00;59.00;;;;;;5072998;28;20012;-67
2022/08/22 10:04:53;;;;;;;9.32;2.55;;;39.00;59.00;;;;;;5072743;28;20066;-67
2022/08/22 10:07:50;;;;;;;9.35;2.20;;;38.70;58.50;;;;;;5071717;28;20405;-67
2022/08/22 10:10:53;;;;;;;9.10;2.53;;;38.20;58.90;;;;;;5073087;28;20036;-70
2022/08/22 10:13:27;;;;;;;12.45;2.65;;;38.70;57.90;;;;;;5073287;28;20089;-68
2022/08/22 10:16:04;;;;;;;10.68;2.58;;;39.50;57.30;;;;;;5073198;28;20043;-69
2022/08/22 10:18:48;;;;;;;11.02;2.80;;;39.50;56.90;;;;;;5073310;28;20111;-67
2022/08/22 10:21:37;;;;;;;8.85;2.60;;;38.50;57.20;;;;;;5073124;28;20025;-70
2022/08/22 10:24:22;;;;;;;10.60;2.72;;;37.70;58.40;;;;;;5052015;28;20029;-69
2022/08/22 10:26:52;;;;;;;9.75;2.88;;;37.60;58.90;;;;;;5071633;28;20386;-69
2022/08/22 10:29:53;;;;;;;10.40;2.40;;;38.10;58.30;;;;;;5072595;28;20048;-68
2022/08/22 10:32:36;;;;;;;11.73;2.70;;;39.10;57.80;;;;;;5074155;28;20028;-67
2022/08/22 10:35:29;;;;;;;9.32;2.53;;;40.30;56.70;;;;;;5077009;28;20048;-70
2022/08/22 10:38:01;;;;;;;8.98;2.45;;;40.40;56.30;;;;;;5057538;28;20033;-66
2022/08/22 10:40:33;;;;;;;9.35;2.83;;;39.80;56.60;;;;;;5077212;28;20028;-69
2022/08/22 10:43:10;;;;;;;9.43;2.60;;;39.70;56.70;;;;;;5063733;28;20029;-67
2022/08/22 10:45:40;;;;;;;10.27;2.75;;;39.70;56.40;;;;;;5074076;28;20029;-70
2022/08/22 10:48:09;;;;;;;11.30;2.95;;;39.00;57.80;;;;;;5076107;28;20025;-67
2022/08/22 10:50:43;;;;;;;10.18;2.60;;;38.20;58.00;;;;;;5076612;28;20027;-67
2022/08/22 10:53:32;;;;;;;9.20;2.60;;;37.40;58.10;;;;;;5076462;28;20161;-69
2022/08/22 10:56:09;;;;;;;9.80;2.78;;;36.30;59.20;;;;;;5076627;28;20039;-67
2022/08/22 10:58:47;;;;;;;9.40;2.95;;;35.70;60.20;;;;;;5076229;28;20559;-69
2022/08/22 11:01:15;;;;;;;13.85;2.67;;;36.00;59.50;;;;;;5076820;28;20028;-67
2022/08/22 11:04:05;;;;;;;7.32;2.70;;;36.80;60.00;;;;;;5076749;28;20035;-66
2022/08/22 11:06:43;;;;;;;9.48;2.85;;;37.60;59.90;;;;;;5076500;28;20024;-67
2022/08/22 11:09:26;;;;;;;12.32;2.80;;;38.70;58.50;;;;;;5076431;28;20056;-67
2022/08/22 11:12:09;;;;;;;9.07;2.38;;;38.90;58.30;;;;;;5076599;28;20366;-67
2022/08/22 11:14:52;;;;;;;9.32;2.53;;;38.10;57.90;;;;;;5075418;28;20103;-67
2022/08/22 11:18:07;;;;;;;10.43;2.97;;;37.10;58.10;;;;;;5076049;28;20035;-66
2022/08/22 11:20:53;;;;;;;6.68;2.38;;;36.10;59.10;;;;;;5066372;28;20024;-67
2022/08/22 11:23:36;;;;;;;9.48;2.67;;;36.00;59.30;;;;;;5076081;28;20085;-67
2022/08/22 11:26:30;;;;;;;11.02;2.83;;;36.20;58.80;;;;;;5069316;28;20021;-67
2022/08/22 11:29:10;;;;;;;8.88;2.80;;;36.60;58.80;;;;;;5066950;28;20012;-66
2022/08/22 11:31:48;;;;;;;9.48;2.60;;;36.40;59.10;;;;;;5069156;28;20032;-67
2022/08/22 11:34:35;;;;;;;11.20;2.92;;;35.90;59.70;;;;;;5064103;28;20028;-67
2022/08/22 11:37:08;;;;;;;11.25;2.88;;;36.20;59.40;;;;;;5074568;28;20462;-67
2022/08/22 11:40:05;;;;;;;7.93;2.30;;;37.30;58.00;;;;;;5076068;28;20021;-67
2022/08/22 11:42:49;;;;;;;8.23;2.10;;;38.60;57.30;;;;;;5071460;28;20025;-69
2022/08/22 11:45:21;;;;;;;9.93;2.55;;;39.80;55.50;;;;;;5074586;28;20031;-66
2022/08/22 11:47:59;;;;;;;12.75;2.72;;;40.90;54.00;;;;;;5075489;28;20020;-66
2022/08/22 11:50:34;;;;;;;10.90;2.40;;;41.60;53.80;;;;;;5075562;28;20059;-66
2022/08/22 11:53:30;;;;;;;10.30;2.75;;;42.10;54.00;;;;;;5075628;28;20047;-66
2022/08/22 11:56:12;;;;;;;6.90;2.70;;;42.80;53.00;;;;;;5075365;28;20502;-69
2022/08/22 11:58:44;;;;;;;9.40;2.67;;;43.30;51.40;;;;;;5074868;28;20054;-66
2022/08/22 12:01:17;;;;;;;6.90;2.30;;;42.10;51.60;;;;;;5075145;28;20042;-66
2022/08/22 12:03:54;;;;;;;7.40;2.55;;;40.90;52.30;;;;;;5075484;28;20523;-66
2022/08/22 12:06:44;;;;;;;9.75;2.10;;;39.60;53.70;;;;;;5075249;28;20070;-67
2022/08/22 12:09:25;;;;;;;6.32;2.60;;;39.10;53.70;;;;;;5074766;28;20017;-68
2022/08/22 12:12:06;;;;;;;7.07;2.40;;;39.50;54.00;;;;;;5075076;28;20025;-66
2022/08/22 12:14:44;;;;;;;6.68;1.98;;;40.00;53.40;;;;;;5073715;28;20021;-66
2022/08/22 12:17:15;;;;;;;8.57;2.60;;;40.50;51.50;;;;;;5074950;28;20032;-66
2022/08/22 12:19:46;;;;;;;8.98;2.38;;;41.00;51.80;;;;;;5057983;28;20035;-67
2022/08/22 12:22:33;;;;;;;9.90;2.60;;;41.50;51.50;;;;;;5073450;28;20497;-68
2022/08/22 12:25:32;;;;;;;8.10;2.53;;;41.60;51.30;;;;;;5074696;28;20031;-69
2022/08/22 12:28:27;;;;;;;9.27;2.58;;;41.90;50.90;;;;;;5074566;28;20032;-67
2022/08/22 12:31:07;;;;;;;6.72;2.10;;;41.70;50.80;;;;;;5069599;28;20359;-66
2022/08/22 12:33:52;;;;;;;8.88;2.70;;;41.50;50.90;;;;;;5074366;28;20103;-66
2022/08/22 12:36:45;;;;;;;8.65;2.35;;;41.50;50.30;;;;;;5074117;28;20040;-67
2022/08/22 12:39:23;;;;;;;11.15;3.47;;;41.90;50.50;;;;;;5074574;28;20033;-66
2022/08/22 12:42:03;;;;;;;7.53;2.28;;;41.40;50.40;;;;;;5074352;28;20036;-68
2022/08/22 12:44:36;;;;;;;9.93;2.40;;;40.90;51.00;;;;;;5073933;28;20035;-67
2022/08/22 12:47:19;;;;;;;7.95;2.38;;;40.30;51.20;;;;;;5074429;28;20036;-67
2022/08/22 12:50:05;;;;;;;11.40;2.45;;;40.10;51.20;;;;;;5074685;28;20024;-68
2022/08/22 12:52:48;;;;;;;9.07;2.88;;;39.80;51.40;;;;;;5073960;28;20378;-67
2022/08/22 12:55:35;;;;;;;13.55;2.78;;;39.50;51.70;;;;;;5074356;28;20024;-66
2022/08/22 12:58:25;;;;;;;9.60;2.50;;;39.30;52.10;;;;;;5073586;28;20028;-66
2022/08/22 13:00:57;;;;;;;11.68;2.75;;;38.80;52.20;;;;;;5073342;28;20477;-66
2022/08/22 13:03:34;;;;;;;8.98;2.60;;;37.70;52.90;;;;;;5073397;28;20032;-68
2022/08/22 13:06:24;;;;;;;14.90;2.92;;;36.60;54.00;;;;;;5073951;28;20067;-66
2022/08/22 13:08:51;;;;;;;11.03;3.07;;;35.60;55.00;;;;;;5073245;28;20025;-68
2022/08/22 13:11:19;;;;;;;7.65;2.50;;;34.70;56.30;;;;;;5074412;28;20021;-65
2022/08/22 13:13:58;;;;;;;10.48;2.90;;;34.10;57.10;;;;;;5073652;28;20059;-66
2022/08/22 13:16:33;;;;;;;8.35;2.40;;;33.60;58.20;;;;;;5052148;28;20017;-69
2022/08/22 13:19:07;;;;;;;9.85;2.65;;;33.30;58.30;;;;;;5073540;28;20086;-67
2022/08/22 13:21:42;;;;;;;8.60;3.00;;;33.20;58.80;;;;;;5073971;28;20024;-69
2022/08/22 13:24:15;;;;;;;7.05;2.70;;;33.10;59.10;;;;;;5073580;28;20035;-66
2022/08/22 13:26:49;;;;;;;10.95;2.85;;;32.90;59.20;;;;;;5072788;28;20060;-67
2022/08/22 13:29:24;;;;;;;8.15;2.55;;;32.80;59.80;;;;;;5069548;28;20105;-66
2022/08/22 13:31:58;;;;;;;9.95;2.72;;;32.60;60.00;;;;;;5056111;28;20024;-67
2022/08/22 13:34:38;;;;;;;8.20;2.45;;;32.40;60.10;;;;;;5053921;28;20438;-66
2022/08/22 13:37:05;;;;;;;9.55;3.25;;;32.20;60.50;;;;;;5060967;28;20036;-68
2022/08/22 13:39:42;;;;;;;9.63;2.80;;;32.10;60.60;;;;;;5073400;28;20346;-66
2022/08/22 13:42:19;;;;;;;9.38;2.83;;;32.00;61.00;;;;;;5073534;28;20025;-69
2022/08/22 13:44:50;;;;;;;8.43;2.72;;;31.80;61.80;;;;;;5073292;28;20021;-68
2022/08/22 13:47:19;;;;;;;11.60;2.88;;;31.80;61.50;;;;;;5073250;28;20111;-68
2022/08/22 13:49:54;;;;;;;9.38;2.53;;;31.80;61.90;;;;;;5072781;28;20017;-66
2022/08/22 13:52:39;;;;;;;11.00;2.65;;;31.70;61.70;;;;;;5073377;28;20024;-67
2022/08/22 13:55:28;;;;;;;11.75;2.90;;;31.50;62.20;;;;;;5073654;28;20492;-69